気象予報士の航空気象 気温30度超えるか?

*All archives   *Admin

2010.05.21 (Fri)

気温30度超えるか?

RJTT 210400Z 18012KT 9999 FEW030 27/12 Q1008 RMK 1CU030 A2977 MOD TURB 4000FT 5NM E KISARAZU BY B767 AT 0337


お昼で27度。


気温と露点差が15度も開いています。


日射で気温がぐんぐん上昇。


低層で揺れの場ができる天気です。


CAT注意です。



 
ブログランキングに参加しています。
にほんブログ村 環境ブログ 天気・気象学へ
にほんブログ村
応援クリックをおねがします。


以下、アフィリエイトサイトです。



スポンサーサイト
13:41  |  気象・天気  |  TB(0)  |  CM(0)  |  EDIT  |  Top↑

コメントを投稿する


 管理者だけに表示  (非公開コメント投稿可能)

▲PageTop

この記事のトラックバックURL

→http://weathereucalyptus.blog115.fc2.com/tb.php/492-1b074105
この記事にトラックバックする(FC2ブログユーザー)

この記事へのトラックバック

▲PageTop

 | BLOGTOP |